createdAt,value
2023-02-16T00:01:50.565Z,0.34
2023-02-16T00:04:24.912Z,0.75
2023-02-16T00:06:58.571Z,0.58
2023-02-16T00:09:31.437Z,0.03
2023-02-16T00:12:22.086Z,0.71
2023-02-16T00:14:56.176Z,0.05
2023-02-16T00:17:29.165Z,-0.22
2023-02-16T00:20:02.155Z,-0.42
2023-02-16T00:22:34.934Z,0.07
2023-02-16T00:25:08.231Z,0.45
2023-02-16T00:27:40.988Z,0.83
2023-02-16T00:30:18.249Z,-0.05
2023-02-16T00:32:55.191Z,-0.08
2023-02-16T00:35:28.232Z,-0.11
2023-02-16T00:38:01.237Z,0.31
2023-02-16T00:40:35.172Z,0.47
2023-02-16T00:43:08.208Z,0.41
2023-02-16T00:45:42.341Z,0.58
2023-02-16T00:48:15.192Z,0.48
2023-02-16T00:50:48.269Z,0.56
2023-02-16T00:53:23.939Z,0.46
2023-02-16T00:55:56.761Z,0.66
2023-02-16T00:58:33.813Z,0.56
2023-02-16T01:01:12.616Z,0.65
2023-02-16T01:03:45.806Z,0.11
2023-02-16T01:06:41.311Z,-0.04
2023-02-16T01:09:39.040Z,0.15
2023-02-16T01:12:17.066Z,-0.21
2023-02-16T01:14:54.304Z,0.54
2023-02-16T01:17:30.002Z,-0.32
2023-02-16T01:20:02.839Z,-0.30
2023-02-16T01:22:35.697Z,-0.40
2023-02-16T01:25:09.004Z,-0.29
2023-02-16T01:27:42.125Z,-0.28
2023-02-16T01:30:18.573Z,-0.35
2023-02-16T01:32:53.514Z,-0.29
2023-02-16T01:35:32.132Z,-0.84
2023-02-16T01:38:05.295Z,-0.47
2023-02-16T01:40:44.188Z,-0.67
2023-02-16T01:43:21.680Z,-0.78
2023-02-16T01:46:00.962Z,-0.80
2023-02-16T01:48:35.553Z,-0.36
2023-02-16T01:51:23.026Z,-0.66
2023-02-16T01:54:01.653Z,-1.13
2023-02-16T01:56:41.757Z,-0.80
2023-02-16T01:59:26.785Z,-0.50
2023-02-16T02:02:01.423Z,-0.63
2023-02-16T02:04:59.039Z,-1.17
2023-02-16T02:07:51.448Z,-1.07
2023-02-16T02:10:31.173Z,-1.04
2023-02-16T02:13:08.552Z,-0.86
2023-02-16T02:15:43.228Z,-1.02
2023-02-16T02:18:16.424Z,-1.08
2023-02-16T02:21:44.558Z,-0.46
2023-02-16T02:24:50.723Z,-0.63
2023-02-16T02:27:27.360Z,-0.50
2023-02-16T02:30:16.440Z,-0.24
2023-02-16T02:33:22.026Z,-0.64
2023-02-16T02:36:05.488Z,-0.05
2023-02-16T02:38:44.717Z,-0.19
2023-02-16T02:41:45.302Z,-0.60
2023-02-16T02:44:22.977Z,-0.23
2023-02-16T02:46:56.391Z,-0.30
2023-02-16T02:49:29.269Z,-0.24
2023-02-16T02:52:02.699Z,0.09
2023-02-16T02:54:57.846Z,-0.50
2023-02-16T02:58:00.023Z,-0.72
2023-02-16T03:00:43.920Z,-0.68
2023-02-16T03:03:22.916Z,-0.70
2023-02-16T03:06:00.510Z,-0.34
2023-02-16T03:08:37.012Z,-1.06
2023-02-16T03:11:31.632Z,-0.78
2023-02-16T03:14:09.310Z,-1.23
2023-02-16T03:16:46.516Z,-0.77
2023-02-16T03:19:37.519Z,-1.33
2023-02-16T03:22:28.291Z,-1.07
2023-02-16T03:25:19.276Z,-0.58
2023-02-16T03:28:10.148Z,-1.20
2023-02-16T03:30:45.690Z,-1.16
2023-02-16T03:33:21.454Z,-1.36
2023-02-16T03:35:55.620Z,-1.80
2023-02-16T03:38:29.124Z,-1.88
2023-02-16T03:41:02.557Z,-1.67
2023-02-16T03:43:35.662Z,-0.92
2023-02-16T03:46:08.656Z,-1.22
2023-02-16T03:48:42.901Z,-1.16
2023-02-16T03:51:16.018Z,-1.04
2023-02-16T03:53:50.113Z,-0.95
2023-02-16T03:56:22.986Z,-0.93
2023-02-16T03:58:56.050Z,-0.70
2023-02-16T04:01:29.772Z,-0.65
2023-02-16T04:04:04.930Z,-0.74
2023-02-16T04:06:37.796Z,-1.10
2023-02-16T04:09:11.007Z,-0.83
2023-02-16T04:12:01.266Z,-0.73
2023-02-16T04:14:33.986Z,-1.09
2023-02-16T04:17:06.764Z,-1.31
2023-02-16T04:19:40.919Z,-1.76
2023-02-16T04:22:13.986Z,-1.75
2023-02-16T04:24:46.912Z,-1.37
2023-02-16T04:27:19.961Z,-1.33
2023-02-16T04:29:52.753Z,-1.38
2023-02-16T04:32:25.737Z,-1.23
2023-02-16T04:34:59.934Z,-1.98
2023-02-16T04:37:32.792Z,-1.74
2023-02-16T04:40:07.097Z,-1.62
2023-02-16T04:42:40.320Z,-1.26
2023-02-16T04:45:13.673Z,-1.18
2023-02-16T04:47:46.520Z,-0.90
2023-02-16T04:50:20.709Z,-0.78
2023-02-16T04:52:53.618Z,-1.06
2023-02-16T04:55:26.497Z,-0.95
2023-02-16T04:57:59.331Z,-0.96
2023-02-16T05:00:32.096Z,-1.57
2023-02-16T05:03:05.125Z,-1.36
2023-02-16T05:05:40.537Z,-1.77
2023-02-16T05:08:13.377Z,-1.77
2023-02-16T05:11:06.324Z,-1.80
2023-02-16T05:13:56.778Z,-1.16
2023-02-16T05:16:30.215Z,-1.65
2023-02-16T05:19:03.011Z,-1.37
2023-02-16T05:21:37.145Z,-1.06
2023-02-16T05:24:12.146Z,-0.91
2023-02-16T05:26:44.940Z,-0.78
2023-02-16T05:29:17.908Z,-1.57
2023-02-16T05:31:50.761Z,-1.72
2023-02-16T05:34:23.699Z,-1.18
2023-02-16T05:36:58.004Z,-1.66
2023-02-16T05:39:31.583Z,-1.64
2023-02-16T05:42:04.737Z,-1.23
2023-02-16T05:44:38.323Z,-1.23
2023-02-16T05:47:11.287Z,-1.16
2023-02-16T05:49:44.407Z,-1.02
2023-02-16T05:52:18.646Z,-1.31
2023-02-16T05:54:51.670Z,-1.76
2023-02-16T05:57:24.613Z,-1.21
2023-02-16T05:59:57.604Z,-1.06
2023-02-16T06:02:30.795Z,-0.84
2023-02-16T06:05:04.994Z,-1.26
2023-02-16T06:07:39.222Z,-0.92
2023-02-16T06:10:12.942Z,-0.72
2023-02-16T06:12:46.006Z,-0.86
2023-02-16T06:15:19.090Z,-1.48
2023-02-16T06:17:51.900Z,-0.99
2023-02-16T06:20:24.599Z,-0.82
2023-02-16T06:22:58.908Z,-1.06
2023-02-16T06:25:31.662Z,-1.11
2023-02-16T06:28:04.889Z,-1.18
2023-02-16T06:30:37.846Z,-1.09
2023-02-16T06:33:10.830Z,-1.87
2023-02-16T06:35:44.325Z,-1.72
2023-02-16T06:38:18.558Z,-2.01
2023-02-16T06:40:53.031Z,-1.94
2023-02-16T06:43:26.185Z,-2.20
2023-02-16T06:45:59.072Z,-2.36
2023-02-16T06:48:32.031Z,-2.03
2023-02-16T06:51:05.846Z,-2.16
2023-02-16T06:53:40.199Z,-2.17
2023-02-16T06:56:13.039Z,-2.30
2023-02-16T06:58:46.157Z,-2.32
2023-02-16T07:01:23.294Z,-2.16
2023-02-16T07:03:57.509Z,-1.81
2023-02-16T07:06:30.942Z,-1.99
2023-02-16T07:09:05.408Z,-1.60
2023-02-16T07:11:38.591Z,-1.44
2023-02-16T07:14:11.615Z,-2.27
2023-02-16T07:16:46.007Z,-2.08
2023-02-16T07:19:19.029Z,-2.10
2023-02-16T07:21:54.375Z,-1.71
2023-02-16T07:24:28.721Z,-1.79
2023-02-16T07:27:01.897Z,-1.84
2023-02-16T07:29:35.420Z,-1.99
2023-02-16T07:32:08.294Z,-1.43
2023-02-16T07:34:41.348Z,-1.88
2023-02-16T07:37:14.229Z,-1.83
2023-02-16T07:40:02.717Z,-1.70
2023-02-16T07:42:37.827Z,-1.27
2023-02-16T07:45:11.027Z,-1.15
2023-02-16T07:47:44.124Z,-1.52
2023-02-16T07:50:19.411Z,-1.13
2023-02-16T07:52:54.325Z,-1.35
2023-02-16T07:55:28.711Z,-1.70
2023-02-16T07:58:01.554Z,-1.82
2023-02-16T08:00:35.832Z,-1.34
2023-02-16T08:03:08.850Z,-1.04
2023-02-16T08:05:41.855Z,-0.97
2023-02-16T08:08:14.784Z,-1.01
2023-02-16T08:10:49.005Z,-1.68
2023-02-16T08:13:21.953Z,-0.74
2023-02-16T08:15:54.926Z,-0.77
2023-02-16T08:18:27.832Z,-0.68
2023-02-16T08:21:13.821Z,-0.82
2023-02-16T08:23:48.507Z,-0.37
2023-02-16T08:26:24.580Z,-0.27
2023-02-16T08:28:58.985Z,-0.27
2023-02-16T08:31:35.221Z,-0.06
2023-02-16T08:34:08.612Z,-0.56
2023-02-16T08:36:44.527Z,-0.72
2023-02-16T08:39:19.645Z,-0.55
2023-02-16T08:41:55.227Z,-0.24
2023-02-16T08:44:30.309Z,-0.07
2023-02-16T08:47:03.785Z,-0.50
2023-02-16T08:49:36.666Z,-0.46
2023-02-16T08:52:10.118Z,-0.63
2023-02-16T08:54:43.085Z,-1.10
2023-02-16T08:57:18.581Z,-0.32
2023-02-16T09:00:11.708Z,-0.57
2023-02-16T09:02:44.735Z,-1.17
2023-02-16T09:05:17.876Z,-0.43
2023-02-16T09:07:51.720Z,0.02
2023-02-16T09:10:24.746Z,-0.05
2023-02-16T09:12:58.990Z,0.00
2023-02-16T09:15:33.236Z,-0.19
2023-02-16T09:18:07.284Z,0.33
2023-02-16T09:20:41.469Z,0.60
2023-02-16T09:23:14.209Z,0.46
2023-02-16T09:25:47.110Z,0.34
2023-02-16T09:28:21.843Z,0.22
2023-02-16T09:30:55.305Z,0.46
2023-02-16T09:33:28.706Z,0.66
2023-02-16T09:36:05.533Z,0.05
2023-02-16T09:38:40.115Z,0.83
2023-02-16T09:41:24.558Z,0.75
2023-02-16T09:44:04.386Z,0.77
2023-02-16T09:46:38.469Z,0.87
2023-02-16T09:49:26.965Z,0.55
2023-02-16T09:52:04.210Z,0.26
2023-02-16T09:54:43.795Z,1.05
2023-02-16T09:57:25.758Z,1.59
2023-02-16T10:00:08.646Z,1.80
2023-02-16T10:02:50.117Z,1.21
2023-02-16T10:05:28.124Z,1.66
2023-02-16T10:08:05.691Z,1.29
2023-02-16T10:10:46.047Z,1.25
2023-02-16T10:13:23.883Z,1.79
2023-02-16T10:16:01.672Z,1.15
2023-02-16T10:18:39.550Z,1.49
2023-02-16T10:21:18.300Z,1.54
2023-02-16T10:23:57.376Z,2.26
2023-02-16T10:26:35.552Z,2.39
2023-02-16T10:29:14.088Z,2.11
2023-02-16T10:31:59.733Z,2.08
2023-02-16T10:34:46.492Z,1.81
2023-02-16T10:37:36.574Z,1.31
2023-02-16T10:40:24.652Z,1.64
2023-02-16T10:43:04.537Z,1.26
2023-02-16T10:45:43.096Z,2.34
2023-02-16T10:48:17.350Z,2.57
2023-02-16T10:50:58.691Z,2.49
2023-02-16T10:53:39.644Z,3.13
2023-02-16T10:56:33.940Z,3.38
2023-02-16T10:59:13.974Z,3.06
2023-02-16T11:01:48.707Z,2.82
2023-02-16T11:04:34.952Z,2.99
2023-02-16T11:07:11.745Z,2.89
2023-02-16T11:09:46.515Z,2.63
2023-02-16T11:12:29.901Z,2.65
2023-02-16T11:15:06.966Z,2.63
2023-02-16T11:17:51.376Z,3.37
2023-02-16T11:20:34.142Z,3.37
2023-02-16T11:23:16.661Z,3.41
2023-02-16T11:25:57.095Z,3.47
2023-02-16T11:28:34.689Z,3.49
2023-02-16T11:31:18.898Z,3.37
2023-02-16T11:34:02.297Z,3.73
2023-02-16T11:36:41.336Z,3.49
2023-02-16T11:39:20.352Z,3.80
2023-02-16T11:41:56.301Z,4.31
2023-02-16T11:44:34.378Z,3.63
2023-02-16T11:47:09.897Z,4.02
2023-02-16T11:49:43.380Z,4.40
2023-02-16T11:52:27.095Z,4.41
2023-02-16T11:55:03.178Z,5.26
2023-02-16T11:57:37.426Z,5.52
2023-02-16T12:00:17.049Z,5.50
2023-02-16T12:03:19.031Z,6.02
2023-02-16T12:06:22.524Z,6.60
2023-02-16T12:09:08.411Z,5.72
2023-02-16T12:11:53.806Z,5.54
2023-02-16T12:14:42.059Z,5.44
2023-02-16T12:17:28.015Z,5.79
2023-02-16T12:20:06.942Z,5.28
2023-02-16T12:22:45.774Z,5.69
2023-02-16T12:25:27.904Z,5.56
2023-02-16T12:28:13.402Z,5.83
2023-02-16T12:30:58.284Z,5.90
2023-02-16T12:33:43.447Z,6.57
2023-02-16T12:36:34.380Z,6.84
2023-02-16T12:39:17.737Z,6.72
2023-02-16T12:42:15.534Z,7.36
2023-02-16T12:44:53.675Z,7.07
2023-02-16T12:47:32.915Z,7.31
2023-02-16T12:50:15.053Z,7.07
2023-02-16T12:52:53.235Z,7.44
2023-02-16T12:55:28.604Z,8.10
2023-02-16T12:58:11.107Z,7.90
2023-02-16T13:00:48.562Z,7.53
2023-02-16T13:03:34.873Z,8.06
2023-02-16T13:06:17.164Z,7.91
2023-02-16T13:08:55.969Z,7.84
2023-02-16T13:11:35.625Z,7.85
2023-02-16T13:14:18.826Z,7.94
2023-02-16T13:16:55.929Z,8.66
2023-02-16T13:19:29.196Z,8.86
2023-02-16T13:22:22.759Z,8.35
2023-02-16T13:25:15.403Z,8.70
2023-02-16T13:27:59.942Z,8.75
2023-02-16T13:30:49.459Z,8.57
2023-02-16T13:33:43.063Z,9.17
2023-02-16T13:36:41.574Z,8.52
2023-02-16T13:39:31.613Z,8.41
2023-02-16T13:42:29.358Z,8.63
2023-02-16T13:45:05.047Z,8.55
2023-02-16T13:47:42.088Z,8.41
2023-02-16T13:50:28.927Z,7.80
2023-02-16T13:53:17.077Z,7.72
2023-02-16T13:55:50.811Z,7.95
2023-02-16T13:58:32.883Z,8.14
2023-02-16T14:01:38.852Z,8.17
2023-02-16T14:04:34.990Z,8.10
2023-02-16T14:07:33.494Z,8.12
2023-02-16T14:10:08.134Z,8.21
2023-02-16T14:12:41.877Z,8.10
2023-02-16T14:15:21.124Z,7.96
2023-02-16T14:17:54.248Z,8.48
2023-02-16T14:20:31.109Z,8.81
2023-02-16T14:23:05.083Z,8.20
2023-02-16T14:25:40.730Z,8.69
2023-02-16T14:28:51.765Z,8.84
2023-02-16T14:31:27.791Z,8.29
2023-02-16T14:34:06.449Z,8.34
2023-02-16T14:37:21.189Z,8.28
2023-02-16T14:40:07.358Z,7.80
2023-02-16T14:42:50.058Z,8.00
2023-02-16T14:45:44.171Z,8.01
2023-02-16T14:48:34.547Z,7.73
2023-02-16T14:51:30.725Z,7.76
2023-02-16T14:54:37.637Z,7.67
2023-02-16T14:57:15.676Z,8.14
2023-02-16T14:59:53.539Z,8.40
2023-02-16T15:02:29.911Z,8.04
2023-02-16T15:05:18.968Z,7.75
2023-02-16T15:07:55.628Z,8.46
2023-02-16T15:10:30.681Z,8.14
2023-02-16T15:13:03.548Z,8.64
2023-02-16T15:15:44.823Z,8.09
2023-02-16T15:18:20.617Z,7.60
2023-02-16T15:20:55.930Z,7.94
2023-02-16T15:23:31.067Z,7.55
2023-02-16T15:26:07.571Z,7.29
2023-02-16T15:28:42.067Z,7.92
2023-02-16T15:31:18.583Z,7.78
2023-02-16T15:33:56.833Z,8.36
2023-02-16T15:36:35.457Z,7.88
2023-02-16T15:39:13.910Z,7.52
2023-02-16T15:41:52.415Z,8.05
2023-02-16T15:44:32.566Z,8.24
2023-02-16T15:47:09.290Z,7.95
2023-02-16T15:49:42.623Z,7.72
2023-02-16T15:52:18.067Z,7.43
2023-02-16T15:54:51.452Z,7.28
2023-02-16T15:57:30.781Z,7.22
2023-02-16T16:00:07.312Z,7.08
2023-02-16T16:02:50.900Z,7.05
2023-02-16T16:05:26.386Z,7.11
2023-02-16T16:08:00.412Z,6.92
2023-02-16T16:10:36.604Z,6.92
2023-02-16T16:13:16.731Z,6.94
2023-02-16T16:15:51.301Z,7.21
2023-02-16T16:18:43.600Z,6.88
2023-02-16T16:21:25.205Z,7.04
2023-02-16T16:24:01.384Z,6.46
2023-02-16T16:26:36.316Z,6.53
2023-02-16T16:29:31.950Z,6.22
2023-02-16T16:32:06.843Z,6.77
2023-02-16T16:34:41.606Z,6.63
2023-02-16T16:37:26.988Z,6.57
2023-02-16T16:40:04.170Z,6.54
2023-02-16T16:42:40.052Z,6.35
2023-02-16T16:45:36.922Z,6.65
2023-02-16T16:48:15.510Z,6.54
2023-02-16T16:50:49.532Z,6.77
2023-02-16T16:53:45.157Z,7.13
2023-02-16T16:56:18.698Z,7.15
2023-02-16T16:58:52.768Z,7.24
2023-02-16T17:01:28.457Z,7.30
2023-02-16T17:04:01.689Z,7.28
2023-02-16T17:06:34.472Z,7.34
2023-02-16T17:09:07.694Z,6.99
2023-02-16T17:11:40.687Z,6.57
2023-02-16T17:14:17.696Z,6.59
2023-02-16T17:16:54.312Z,7.06
2023-02-16T17:19:29.433Z,6.83
2023-02-16T17:22:02.256Z,6.41
2023-02-16T17:29:29.315Z,6.87
2023-02-16T17:32:03.994Z,6.81
2023-02-16T17:34:37.000Z,6.82
2023-02-16T17:37:11.688Z,6.38
2023-02-16T17:39:44.440Z,6.35
2023-02-16T17:42:17.230Z,6.83
2023-02-16T17:44:50.853Z,6.94
2023-02-16T17:47:25.011Z,6.98
2023-02-16T17:49:57.733Z,6.89
2023-02-16T17:52:30.664Z,6.77
2023-02-16T17:55:03.603Z,6.68
2023-02-16T17:57:37.149Z,6.50
2023-02-16T18:00:16.981Z,6.29
2023-02-16T18:02:51.091Z,6.16
2023-02-16T18:05:24.177Z,6.23
2023-02-16T18:07:57.195Z,6.64
2023-02-16T18:10:36.040Z,6.72
2023-02-16T18:13:09.579Z,6.76
2023-02-16T18:15:45.246Z,6.69
2023-02-16T18:18:19.893Z,6.54
2023-02-16T18:20:52.653Z,6.55
2023-02-16T18:23:25.488Z,6.46
2023-02-16T18:25:58.674Z,6.22
2023-02-16T18:28:34.192Z,6.13
2023-02-16T18:31:08.080Z,6.32
2023-02-16T18:33:42.397Z,6.26
2023-02-16T18:36:15.210Z,5.89
2023-02-16T18:38:48.067Z,5.80
2023-02-16T18:41:20.834Z,6.15
2023-02-16T18:43:53.592Z,5.94
2023-02-16T18:46:26.493Z,5.96
2023-02-16T18:49:00.627Z,5.86
2023-02-16T18:51:33.598Z,5.70
2023-02-16T18:54:06.517Z,5.84
2023-02-16T18:56:40.782Z,5.81
2023-02-16T18:59:13.602Z,5.78
2023-02-16T19:01:46.452Z,5.73
2023-02-16T19:04:21.996Z,5.83
2023-02-16T19:06:56.356Z,5.62
2023-02-16T19:09:30.234Z,5.66
2023-02-16T19:12:10.777Z,5.71
2023-02-16T19:15:21.508Z,5.64
2023-02-16T19:18:15.726Z,5.72
2023-02-16T19:20:50.734Z,5.20
2023-02-16T19:23:23.509Z,5.51
2023-02-16T19:25:56.310Z,5.72
2023-02-16T19:28:29.189Z,5.86
2023-02-16T19:31:17.037Z,5.81
2023-02-16T19:34:17.849Z,5.60
2023-02-16T19:37:25.939Z,5.59
2023-02-16T19:41:01.129Z,5.62
2023-02-16T19:43:42.116Z,5.68
2023-02-16T19:46:35.550Z,5.53
2023-02-16T19:49:08.966Z,5.66
2023-02-16T19:51:41.915Z,5.64
2023-02-16T19:54:16.107Z,5.07
2023-02-16T19:56:49.075Z,5.03
2023-02-16T19:59:22.893Z,5.08
2023-02-16T20:01:55.878Z,5.12
2023-02-16T20:04:29.184Z,5.47
2023-02-16T20:07:01.950Z,5.82
2023-02-16T20:09:37.282Z,6.45
2023-02-16T20:12:10.155Z,6.55
2023-02-16T20:14:43.194Z,7.02
2023-02-16T20:17:15.975Z,7.22
2023-02-16T20:19:48.763Z,7.37
2023-02-16T20:22:21.947Z,7.74
2023-02-16T20:24:56.507Z,7.89
2023-02-16T20:27:29.511Z,8.11
2023-02-16T20:30:02.880Z,8.20
2023-02-16T20:32:35.722Z,8.42
2023-02-16T20:35:09.328Z,8.25
2023-02-16T20:37:42.286Z,8.29
2023-02-16T20:40:20.317Z,8.62
2023-02-16T20:42:53.076Z,8.61
2023-02-16T20:45:25.845Z,8.69
2023-02-16T20:47:58.656Z,8.78
2023-02-16T20:50:31.626Z,8.77
2023-02-16T20:53:04.658Z,8.68
2023-02-16T20:55:38.785Z,8.83
2023-02-16T20:58:11.643Z,8.82
2023-02-16T21:00:45.606Z,9.05
2023-02-16T21:03:19.246Z,8.89
2023-02-16T21:05:52.070Z,9.00
2023-02-16T21:08:24.949Z,8.99
2023-02-16T21:10:59.179Z,9.11
2023-02-16T21:13:32.963Z,9.18
2023-02-16T21:16:07.208Z,9.15
2023-02-16T21:18:41.825Z,9.31
2023-02-16T21:21:16.340Z,9.19
2023-02-16T21:23:51.665Z,9.15
2023-02-16T21:26:26.775Z,9.04
2023-02-16T21:28:59.978Z,9.05
2023-02-16T21:31:32.874Z,8.89
2023-02-16T21:34:05.872Z,8.94
2023-02-16T21:36:38.893Z,8.97
2023-02-16T21:39:12.749Z,9.18
2023-02-16T21:41:46.003Z,9.11
2023-02-16T21:44:19.133Z,9.15
2023-02-16T21:46:52.024Z,9.13
2023-02-16T21:49:24.148Z,9.12
2023-02-16T21:51:57.174Z,9.23
2023-02-16T21:54:44.347Z,9.14
2023-02-16T21:57:18.496Z,9.21
2023-02-16T21:59:51.363Z,9.23
2023-02-16T22:02:24.203Z,9.19
2023-02-16T22:04:57.091Z,9.02
2023-02-16T22:07:30.552Z,9.00
2023-02-16T22:10:03.379Z,8.86
2023-02-16T22:12:37.508Z,9.08
2023-02-16T22:15:10.355Z,8.79
2023-02-16T22:17:43.227Z,8.83
2023-02-16T22:20:16.588Z,8.75
2023-02-16T22:22:49.415Z,8.80
2023-02-16T22:25:23.089Z,8.92
2023-02-16T22:27:57.286Z,8.98
2023-02-16T22:30:30.277Z,8.96
2023-02-16T22:33:03.319Z,9.01
2023-02-16T22:35:36.153Z,9.07
2023-02-16T22:38:09.067Z,9.16
2023-02-16T22:40:41.890Z,9.22
2023-02-16T22:43:16.087Z,9.02
2023-02-16T22:45:48.984Z,9.27
2023-02-16T22:48:22.075Z,9.10
2023-02-16T22:50:59.392Z,9.40
2023-02-16T22:53:33.541Z,9.09
2023-02-16T22:56:19.702Z,9.34
2023-02-16T22:58:56.411Z,9.18
2023-02-16T23:01:31.585Z,9.19
2023-02-16T23:04:04.938Z,9.11
2023-02-16T23:06:38.452Z,9.24
2023-02-16T23:09:15.250Z,9.23
2023-02-16T23:11:49.062Z,9.05
2023-02-16T23:14:23.282Z,9.05
2023-02-16T23:16:56.178Z,9.18
2023-02-16T23:19:29.037Z,9.08
2023-02-16T23:22:02.145Z,9.12
2023-02-16T23:24:35.148Z,9.01
2023-02-16T23:27:08.106Z,8.99
2023-02-16T23:29:42.327Z,9.09
2023-02-16T23:32:15.103Z,9.09
2023-02-16T23:34:47.932Z,9.13
2023-02-16T23:37:20.715Z,9.13
2023-02-16T23:39:53.477Z,9.23
2023-02-16T23:42:26.840Z,9.27
2023-02-16T23:45:01.185Z,9.23
2023-02-16T23:47:34.156Z,9.16
2023-02-16T23:50:08.435Z,9.32
2023-02-16T23:52:42.097Z,9.29
2023-02-16T23:55:15.184Z,9.43
2023-02-16T23:57:48.647Z,9.26
